sensor_id;sensor_type;location;lat;lon;timestamp;P1;durP1;ratioP1;P2;durP2;ratioP2
14837;SDS011;7510;59.296;18.106;2022-07-03T00:02:24;3.75;;;1.90;;
14837;SDS011;7510;59.296;18.106;2022-07-03T00:04:49;2.65;;;1.92;;
14837;SDS011;7510;59.296;18.106;2022-07-03T00:07:15;4.65;;;2.00;;
14837;SDS011;7510;59.296;18.106;2022-07-03T00:09:40;3.20;;;2.20;;
14837;SDS011;7510;59.296;18.106;2022-07-03T00:12:05;4.10;;;2.22;;
14837;SDS011;7510;59.296;18.106;2022-07-03T00:14:31;2.63;;;1.98;;
14837;SDS011;7510;59.296;18.106;2022-07-03T00:16:57;3.00;;;2.05;;
14837;SDS011;7510;59.296;18.106;2022-07-03T00:19:22;5.93;;;2.10;;
14837;SDS011;7510;59.296;18.106;2022-07-03T00:21:52;2.80;;;2.15;;
14837;SDS011;7510;59.296;18.106;2022-07-03T00:24:20;2.40;;;1.88;;
14837;SDS011;7510;59.296;18.106;2022-07-03T00:26:50;2.72;;;2.00;;
14837;SDS011;7510;59.296;18.106;2022-07-03T00:29:15;1.98;;;1.85;;
14837;SDS011;7510;59.296;18.106;2022-07-03T00:31:42;3.03;;;1.90;;
14837;SDS011;7510;59.296;18.106;2022-07-03T00:34:08;3.00;;;2.05;;
14837;SDS011;7510;59.296;18.106;2022-07-03T00:36:34;2.67;;;1.90;;
14837;SDS011;7510;59.296;18.106;2022-07-03T00:39:00;2.45;;;1.85;;
14837;SDS011;7510;59.296;18.106;2022-07-03T00:41:26;2.05;;;1.85;;
14837;SDS011;7510;59.296;18.106;2022-07-03T00:43:52;3.30;;;1.80;;
14837;SDS011;7510;59.296;18.106;2022-07-03T00:46:17;2.13;;;1.92;;
14837;SDS011;7510;59.296;18.106;2022-07-03T00:48:45;3.67;;;2.10;;
14837;SDS011;7510;59.296;18.106;2022-07-03T00:51:11;3.28;;;2.20;;
14837;SDS011;7510;59.296;18.106;2022-07-03T00:53:39;4.03;;;2.17;;
14837;SDS011;7510;59.296;18.106;2022-07-03T00:56:06;3.05;;;1.73;;
14837;SDS011;7510;59.296;18.106;2022-07-03T00:58:36;6.25;;;2.13;;
14837;SDS011;7510;59.296;18.106;2022-07-03T01:01:02;2.72;;;2.05;;
14837;SDS011;7510;59.296;18.106;2022-07-03T01:03:27;4.63;;;2.30;;
14837;SDS011;7510;59.296;18.106;2022-07-03T01:05:53;5.38;;;1.90;;
14837;SDS011;7510;59.296;18.106;2022-07-03T01:08:36;3.00;;;1.92;;
14837;SDS011;7510;59.296;18.106;2022-07-03T01:11:42;3.72;;;2.13;;
14837;SDS011;7510;59.296;18.106;2022-07-03T01:16:57;2.77;;;1.93;;
14837;SDS011;7510;59.296;18.106;2022-07-03T01:24:53;2.45;;;1.85;;
14837;SDS011;7510;59.296;18.106;2022-07-03T01:27:27;3.85;;;2.28;;
14837;SDS011;7510;59.296;18.106;2022-07-03T01:32:28;2.20;;;2.00;;
14837;SDS011;7510;59.296;18.106;2022-07-03T01:34:56;3.05;;;2.22;;
14837;SDS011;7510;59.296;18.106;2022-07-03T01:37:22;3.63;;;2.17;;
14837;SDS011;7510;59.296;18.106;2022-07-03T01:39:49;3.92;;;1.70;;
14837;SDS011;7510;59.296;18.106;2022-07-03T01:42:16;2.38;;;2.17;;
14837;SDS011;7510;59.296;18.106;2022-07-03T01:44:43;2.42;;;2.08;;
14837;SDS011;7510;59.296;18.106;2022-07-03T01:47:08;2.40;;;2.10;;
14837;SDS011;7510;59.296;18.106;2022-07-03T01:49:34;3.45;;;2.40;;
14837;SDS011;7510;59.296;18.106;2022-07-03T01:51:59;4.20;;;1.90;;
14837;SDS011;7510;59.296;18.106;2022-07-03T01:54:25;7.18;;;2.28;;
14837;SDS011;7510;59.296;18.106;2022-07-03T01:56:51;3.42;;;1.98;;
14837;SDS011;7510;59.296;18.106;2022-07-03T01:59:16;2.75;;;2.55;;
14837;SDS011;7510;59.296;18.106;2022-07-03T02:01:47;3.37;;;1.90;;
14837;SDS011;7510;59.296;18.106;2022-07-03T02:06:44;4.25;;;2.30;;
14837;SDS011;7510;59.296;18.106;2022-07-03T02:09:11;2.63;;;1.90;;
14837;SDS011;7510;59.296;18.106;2022-07-03T02:11:40;2.38;;;2.17;;
14837;SDS011;7510;59.296;18.106;2022-07-03T02:14:13;2.20;;;2.00;;
14837;SDS011;7510;59.296;18.106;2022-07-03T02:19:27;2.10;;;1.95;;
14837;SDS011;7510;59.296;18.106;2022-07-03T02:21:54;2.97;;;1.80;;
14837;SDS011;7510;59.296;18.106;2022-07-03T02:26:54;3.13;;;2.05;;
14837;SDS011;7510;59.296;18.106;2022-07-03T02:29:20;2.45;;;1.95;;
14837;SDS011;7510;59.296;18.106;2022-07-03T02:31:46;2.47;;;1.70;;
14837;SDS011;7510;59.296;18.106;2022-07-03T02:34:18;2.53;;;1.97;;
14837;SDS011;7510;59.296;18.106;2022-07-03T02:36:47;2.55;;;2.33;;
14837;SDS011;7510;59.296;18.106;2022-07-03T02:39:20;5.03;;;2.22;;
14837;SDS011;7510;59.296;18.106;2022-07-03T02:41:51;4.03;;;2.00;;
14837;SDS011;7510;59.296;18.106;2022-07-03T02:44:25;2.33;;;1.52;;
14837;SDS011;7510;59.296;18.106;2022-07-03T02:49:43;3.85;;;2.20;;
14837;SDS011;7510;59.296;18.106;2022-07-03T02:54:55;2.95;;;2.05;;
14837;SDS011;7510;59.296;18.106;2022-07-03T02:57:22;3.38;;;1.90;;
14837;SDS011;7510;59.296;18.106;2022-07-03T02:59:57;2.30;;;1.92;;
14837;SDS011;7510;59.296;18.106;2022-07-03T03:04:49;3.47;;;1.60;;
14837;SDS011;7510;59.296;18.106;2022-07-03T03:07:18;2.70;;;1.65;;
14837;SDS011;7510;59.296;18.106;2022-07-03T03:09:47;5.25;;;1.58;;
14837;SDS011;7510;59.296;18.106;2022-07-03T03:12:13;1.88;;;1.65;;
14837;SDS011;7510;59.296;18.106;2022-07-03T03:14:40;3.97;;;1.40;;
14837;SDS011;7510;59.296;18.106;2022-07-03T03:17:05;1.80;;;1.50;;
14837;SDS011;7510;59.296;18.106;2022-07-03T03:19:31;2.08;;;1.40;;
14837;SDS011;7510;59.296;18.106;2022-07-03T03:22:07;2.08;;;1.42;;
14837;SDS011;7510;59.296;18.106;2022-07-03T03:24:34;1.95;;;1.15;;
14837;SDS011;7510;59.296;18.106;2022-07-03T03:27:00;1.85;;;1.20;;
14837;SDS011;7510;59.296;18.106;2022-07-03T03:29:25;2.00;;;1.30;;
14837;SDS011;7510;59.296;18.106;2022-07-03T03:31:50;1.70;;;1.30;;
14837;SDS011;7510;59.296;18.106;2022-07-03T03:34:16;3.58;;;1.35;;
14837;SDS011;7510;59.296;18.106;2022-07-03T03:36:42;3.97;;;1.40;;
14837;SDS011;7510;59.296;18.106;2022-07-03T03:39:07;2.90;;;1.10;;
14837;SDS011;7510;59.296;18.106;2022-07-03T03:41:32;4.27;;;1.30;;
14837;SDS011;7510;59.296;18.106;2022-07-03T03:43:58;5.70;;;1.45;;
14837;SDS011;7510;59.296;18.106;2022-07-03T03:46:23;4.28;;;1.40;;
14837;SDS011;7510;59.296;18.106;2022-07-03T03:48:49;1.50;;;1.27;;
14837;SDS011;7510;59.296;18.106;2022-07-03T03:51:14;5.95;;;1.50;;
14837;SDS011;7510;59.296;18.106;2022-07-03T03:53:39;3.28;;;1.25;;
14837;SDS011;7510;59.296;18.106;2022-07-03T03:56:08;2.40;;;1.20;;
14837;SDS011;7510;59.296;18.106;2022-07-03T03:58:35;2.33;;;1.70;;
14837;SDS011;7510;59.296;18.106;2022-07-03T04:01:00;5.82;;;1.30;;
14837;SDS011;7510;59.296;18.106;2022-07-03T04:03:27;1.70;;;1.02;;
14837;SDS011;7510;59.296;18.106;2022-07-03T04:05:53;2.35;;;1.20;;
14837;SDS011;7510;59.296;18.106;2022-07-03T04:08:19;2.95;;;1.40;;
14837;SDS011;7510;59.296;18.106;2022-07-03T04:10:44;3.72;;;1.20;;
14837;SDS011;7510;59.296;18.106;2022-07-03T04:13:09;2.67;;;1.63;;
14837;SDS011;7510;59.296;18.106;2022-07-03T04:15:34;2.40;;;1.17;;
14837;SDS011;7510;59.296;18.106;2022-07-03T04:18:00;1.97;;;1.10;;
14837;SDS011;7510;59.296;18.106;2022-07-03T04:20:25;2.87;;;1.30;;
14837;SDS011;7510;59.296;18.106;2022-07-03T04:22:50;1.67;;;1.05;;
14837;SDS011;7510;59.296;18.106;2022-07-03T04:25:16;1.67;;;1.25;;
14837;SDS011;7510;59.296;18.106;2022-07-03T04:27:41;1.05;;;0.93;;
14837;SDS011;7510;59.296;18.106;2022-07-03T04:30:06;2.47;;;1.00;;
14837;SDS011;7510;59.296;18.106;2022-07-03T04:32:35;2.10;;;1.35;;
14837;SDS011;7510;59.296;18.106;2022-07-03T04:35:00;2.92;;;1.20;;
14837;SDS011;7510;59.296;18.106;2022-07-03T04:37:25;2.63;;;1.20;;
14837;SDS011;7510;59.296;18.106;2022-07-03T04:39:51;1.10;;;1.00;;
14837;SDS011;7510;59.296;18.106;2022-07-03T04:42:16;2.53;;;1.17;;
14837;SDS011;7510;59.296;18.106;2022-07-03T04:44:41;6.63;;;1.60;;
14837;SDS011;7510;59.296;18.106;2022-07-03T04:47:06;2.13;;;1.10;;
14837;SDS011;7510;59.296;18.106;2022-07-03T04:49:31;3.38;;;1.52;;
14837;SDS011;7510;59.296;18.106;2022-07-03T04:51:57;5.33;;;1.33;;
14837;SDS011;7510;59.296;18.106;2022-07-03T04:54:22;2.27;;;1.07;;
14837;SDS011;7510;59.296;18.106;2022-07-03T04:56:47;5.00;;;1.38;;
14837;SDS011;7510;59.296;18.106;2022-07-03T04:59:12;2.33;;;1.10;;
14837;SDS011;7510;59.296;18.106;2022-07-03T05:01:38;1.70;;;1.00;;
14837;SDS011;7510;59.296;18.106;2022-07-03T05:04:03;2.97;;;1.50;;
14837;SDS011;7510;59.296;18.106;2022-07-03T05:06:28;5.63;;;1.45;;
14837;SDS011;7510;59.296;18.106;2022-07-03T05:08:53;1.80;;;1.10;;
14837;SDS011;7510;59.296;18.106;2022-07-03T05:11:18;2.38;;;1.33;;
14837;SDS011;7510;59.296;18.106;2022-07-03T05:13:44;2.20;;;1.25;;
14837;SDS011;7510;59.296;18.106;2022-07-03T05:16:09;1.70;;;1.33;;
14837;SDS011;7510;59.296;18.106;2022-07-03T05:18:34;2.53;;;1.20;;
14837;SDS011;7510;59.296;18.106;2022-07-03T05:21:00;3.65;;;1.60;;
14837;SDS011;7510;59.296;18.106;2022-07-03T05:23:25;4.65;;;1.77;;
14837;SDS011;7510;59.296;18.106;2022-07-03T05:25:50;3.10;;;1.37;;
14837;SDS011;7510;59.296;18.106;2022-07-03T05:28:16;2.33;;;0.90;;
14837;SDS011;7510;59.296;18.106;2022-07-03T05:30:41;2.90;;;1.30;;
14837;SDS011;7510;59.296;18.106;2022-07-03T05:33:06;2.23;;;1.07;;
14837;SDS011;7510;59.296;18.106;2022-07-03T05:35:31;3.50;;;1.40;;
14837;SDS011;7510;59.296;18.106;2022-07-03T05:37:56;2.47;;;1.33;;
14837;SDS011;7510;59.296;18.106;2022-07-03T05:40:22;4.43;;;1.17;;
14837;SDS011;7510;59.296;18.106;2022-07-03T05:42:47;2.20;;;1.00;;
14837;SDS011;7510;59.296;18.106;2022-07-03T05:45:12;3.85;;;1.45;;
14837;SDS011;7510;59.296;18.106;2022-07-03T05:47:37;4.28;;;1.23;;
14837;SDS011;7510;59.296;18.106;2022-07-03T05:50:03;1.50;;;1.00;;
14837;SDS011;7510;59.296;18.106;2022-07-03T05:52:28;1.65;;;1.27;;
14837;SDS011;7510;59.296;18.106;2022-07-03T05:54:53;3.93;;;1.20;;
14837;SDS011;7510;59.296;18.106;2022-07-03T05:57:18;4.67;;;1.30;;
14837;SDS011;7510;59.296;18.106;2022-07-03T05:59:45;3.08;;;1.10;;
14837;SDS011;7510;59.296;18.106;2022-07-03T06:02:10;1.50;;;0.83;;
14837;SDS011;7510;59.296;18.106;2022-07-03T06:04:35;1.60;;;0.97;;
14837;SDS011;7510;59.296;18.106;2022-07-03T06:07:01;1.57;;;0.90;;
14837;SDS011;7510;59.296;18.106;2022-07-03T06:09:26;2.72;;;1.20;;
14837;SDS011;7510;59.296;18.106;2022-07-03T06:11:51;3.43;;;0.93;;
14837;SDS011;7510;59.296;18.106;2022-07-03T06:14:16;3.37;;;1.13;;
14837;SDS011;7510;59.296;18.106;2022-07-03T06:16:41;2.33;;;1.00;;
14837;SDS011;7510;59.296;18.106;2022-07-03T06:19:07;2.87;;;1.20;;
14837;SDS011;7510;59.296;18.106;2022-07-03T06:21:32;3.33;;;0.90;;
14837;SDS011;7510;59.296;18.106;2022-07-03T06:23:58;3.92;;;1.08;;
14837;SDS011;7510;59.296;18.106;2022-07-03T06:26:24;3.70;;;1.10;;
14837;SDS011;7510;59.296;18.106;2022-07-03T06:28:49;1.90;;;1.00;;
14837;SDS011;7510;59.296;18.106;2022-07-03T06:31:14;3.50;;;1.10;;
14837;SDS011;7510;59.296;18.106;2022-07-03T06:33:40;1.83;;;0.93;;
14837;SDS011;7510;59.296;18.106;2022-07-03T06:36:05;4.33;;;0.93;;
14837;SDS011;7510;59.296;18.106;2022-07-03T06:38:30;3.05;;;1.08;;
14837;SDS011;7510;59.296;18.106;2022-07-03T06:40:56;4.88;;;1.08;;
14837;SDS011;7510;59.296;18.106;2022-07-03T06:43:21;1.50;;;0.90;;
14837;SDS011;7510;59.296;18.106;2022-07-03T06:45:46;3.27;;;1.30;;
14837;SDS011;7510;59.296;18.106;2022-07-03T06:48:11;2.17;;;0.93;;
14837;SDS011;7510;59.296;18.106;2022-07-03T06:50:36;2.13;;;1.10;;
14837;SDS011;7510;59.296;18.106;2022-07-03T06:53:02;3.30;;;1.13;;
14837;SDS011;7510;59.296;18.106;2022-07-03T06:55:27;1.25;;;0.80;;
14837;SDS011;7510;59.296;18.106;2022-07-03T06:57:52;3.97;;;1.10;;
14837;SDS011;7510;59.296;18.106;2022-07-03T07:00:18;3.13;;;1.10;;
14837;SDS011;7510;59.296;18.106;2022-07-03T07:02:43;3.88;;;1.02;;
14837;SDS011;7510;59.296;18.106;2022-07-03T07:05:08;3.60;;;1.17;;
14837;SDS011;7510;59.296;18.106;2022-07-03T07:07:33;1.57;;;0.77;;
14837;SDS011;7510;59.296;18.106;2022-07-03T07:09:59;2.13;;;0.98;;
14837;SDS011;7510;59.296;18.106;2022-07-03T07:12:24;2.00;;;0.93;;
14837;SDS011;7510;59.296;18.106;2022-07-03T07:14:50;2.90;;;0.93;;
14837;SDS011;7510;59.296;18.106;2022-07-03T07:17:15;2.80;;;1.42;;
14837;SDS011;7510;59.296;18.106;2022-07-03T07:19:41;2.53;;;1.05;;
14837;SDS011;7510;59.296;18.106;2022-07-03T07:22:06;1.60;;;1.08;;
14837;SDS011;7510;59.296;18.106;2022-07-03T07:24:31;1.73;;;1.00;;
14837;SDS011;7510;59.296;18.106;2022-07-03T07:26:57;1.98;;;0.80;;
14837;SDS011;7510;59.296;18.106;2022-07-03T07:29:22;2.78;;;1.30;;
14837;SDS011;7510;59.296;18.106;2022-07-03T07:31:48;4.73;;;1.07;;
14837;SDS011;7510;59.296;18.106;2022-07-03T07:34:13;2.15;;;0.80;;
14837;SDS011;7510;59.296;18.106;2022-07-03T07:36:39;3.20;;;1.13;;
14837;SDS011;7510;59.296;18.106;2022-07-03T07:39:05;0.82;;;0.80;;
14837;SDS011;7510;59.296;18.106;2022-07-03T07:41:30;3.35;;;1.10;;
14837;SDS011;7510;59.296;18.106;2022-07-03T07:43:55;1.60;;;1.13;;
14837;SDS011;7510;59.296;18.106;2022-07-03T07:46:20;1.43;;;0.83;;
14837;SDS011;7510;59.296;18.106;2022-07-03T07:48:46;2.35;;;1.00;;
14837;SDS011;7510;59.296;18.106;2022-07-03T07:51:11;3.08;;;0.95;;
14837;SDS011;7510;59.296;18.106;2022-07-03T07:53:36;3.25;;;1.17;;
14837;SDS011;7510;59.296;18.106;2022-07-03T07:56:02;2.78;;;1.02;;
14837;SDS011;7510;59.296;18.106;2022-07-03T07:58:27;2.13;;;0.70;;
14837;SDS011;7510;59.296;18.106;2022-07-03T08:00:53;5.13;;;1.30;;
14837;SDS011;7510;59.296;18.106;2022-07-03T08:03:37;1.63;;;0.90;;
14837;SDS011;7510;59.296;18.106;2022-07-03T08:06:21;1.40;;;0.80;;
14837;SDS011;7510;59.296;18.106;2022-07-03T08:08:46;2.20;;;0.90;;
14837;SDS011;7510;59.296;18.106;2022-07-03T08:11:11;4.10;;;0.90;;
14837;SDS011;7510;59.296;18.106;2022-07-03T08:13:36;2.85;;;1.15;;
14837;SDS011;7510;59.296;18.106;2022-07-03T08:16:03;2.40;;;0.95;;
14837;SDS011;7510;59.296;18.106;2022-07-03T08:18:28;1.98;;;1.00;;
14837;SDS011;7510;59.296;18.106;2022-07-03T08:20:53;1.60;;;0.83;;
14837;SDS011;7510;59.296;18.106;2022-07-03T08:23:19;1.67;;;1.00;;
14837;SDS011;7510;59.296;18.106;2022-07-03T08:25:44;2.00;;;1.13;;
14837;SDS011;7510;59.296;18.106;2022-07-03T08:28:09;3.47;;;1.33;;
14837;SDS011;7510;59.296;18.106;2022-07-03T08:30:34;4.23;;;1.10;;
14837;SDS011;7510;59.296;18.106;2022-07-03T08:33:00;3.25;;;1.08;;
14837;SDS011;7510;59.296;18.106;2022-07-03T08:35:26;1.47;;;1.03;;
14837;SDS011;7510;59.296;18.106;2022-07-03T08:37:51;2.92;;;0.95;;
14837;SDS011;7510;59.296;18.106;2022-07-03T08:40:17;3.13;;;1.02;;
14837;SDS011;7510;59.296;18.106;2022-07-03T08:42:47;2.53;;;1.20;;
14837;SDS011;7510;59.296;18.106;2022-07-03T08:45:14;2.22;;;1.00;;
14837;SDS011;7510;59.296;18.106;2022-07-03T08:47:40;5.55;;;1.00;;
14837;SDS011;7510;59.296;18.106;2022-07-03T08:50:05;2.35;;;1.15;;
14837;SDS011;7510;59.296;18.106;2022-07-03T08:52:30;2.22;;;1.10;;
14837;SDS011;7510;59.296;18.106;2022-07-03T08:54:56;3.10;;;1.13;;
14837;SDS011;7510;59.296;18.106;2022-07-03T08:57:21;1.52;;;0.65;;
14837;SDS011;7510;59.296;18.106;2022-07-03T08:59:52;2.83;;;0.93;;
14837;SDS011;7510;59.296;18.106;2022-07-03T09:02:17;3.10;;;1.00;;
14837;SDS011;7510;59.296;18.106;2022-07-03T09:04:42;2.28;;;0.93;;
14837;SDS011;7510;59.296;18.106;2022-07-03T09:07:07;2.55;;;1.00;;
14837;SDS011;7510;59.296;18.106;2022-07-03T09:09:33;2.60;;;1.20;;
14837;SDS011;7510;59.296;18.106;2022-07-03T09:11:59;3.72;;;1.10;;
14837;SDS011;7510;59.296;18.106;2022-07-03T09:14:24;2.40;;;0.80;;
14837;SDS011;7510;59.296;18.106;2022-07-03T09:16:49;2.80;;;1.10;;
14837;SDS011;7510;59.296;18.106;2022-07-03T09:19:14;3.03;;;1.02;;
14837;SDS011;7510;59.296;18.106;2022-07-03T09:21:40;4.80;;;1.00;;
14837;SDS011;7510;59.296;18.106;2022-07-03T09:24:08;3.05;;;0.80;;
14837;SDS011;7510;59.296;18.106;2022-07-03T09:26:34;2.10;;;1.08;;
14837;SDS011;7510;59.296;18.106;2022-07-03T09:29:00;2.63;;;0.90;;
14837;SDS011;7510;59.296;18.106;2022-07-03T09:31:26;2.20;;;1.05;;
14837;SDS011;7510;59.296;18.106;2022-07-03T09:36:16;2.33;;;1.02;;
14837;SDS011;7510;59.296;18.106;2022-07-03T09:38:45;1.27;;;0.73;;
14837;SDS011;7510;59.296;18.106;2022-07-03T09:41:10;2.17;;;0.93;;
14837;SDS011;7510;59.296;18.106;2022-07-03T09:43:36;1.67;;;0.60;;
14837;SDS011;7510;59.296;18.106;2022-07-03T09:46:05;2.65;;;0.90;;
14837;SDS011;7510;59.296;18.106;2022-07-03T09:48:32;3.03;;;1.10;;
14837;SDS011;7510;59.296;18.106;2022-07-03T09:56:09;2.35;;;1.05;;
14837;SDS011;7510;59.296;18.106;2022-07-03T09:58:34;1.88;;;0.60;;
14837;SDS011;7510;59.296;18.106;2022-07-03T10:01:15;0.98;;;0.82;;
14837;SDS011;7510;59.296;18.106;2022-07-03T10:03:40;2.25;;;0.90;;
14837;SDS011;7510;59.296;18.106;2022-07-03T10:06:05;1.33;;;0.90;;
14837;SDS011;7510;59.296;18.106;2022-07-03T10:08:30;1.73;;;0.70;;
14837;SDS011;7510;59.296;18.106;2022-07-03T10:10:56;3.03;;;1.00;;
14837;SDS011;7510;59.296;18.106;2022-07-03T10:13:21;4.07;;;0.93;;
14837;SDS011;7510;59.296;18.106;2022-07-03T10:15:47;1.60;;;0.90;;
14837;SDS011;7510;59.296;18.106;2022-07-03T10:18:12;3.15;;;0.77;;
14837;SDS011;7510;59.296;18.106;2022-07-03T10:20:39;1.02;;;0.80;;
14837;SDS011;7510;59.296;18.106;2022-07-03T10:23:04;3.60;;;1.15;;
14837;SDS011;7510;59.296;18.106;2022-07-03T10:25:30;1.60;;;0.70;;
14837;SDS011;7510;59.296;18.106;2022-07-03T10:27:55;1.23;;;0.65;;
14837;SDS011;7510;59.296;18.106;2022-07-03T10:30:22;2.08;;;0.70;;
14837;SDS011;7510;59.296;18.106;2022-07-03T10:32:48;0.75;;;0.52;;
14837;SDS011;7510;59.296;18.106;2022-07-03T10:35:14;0.60;;;0.60;;
14837;SDS011;7510;59.296;18.106;2022-07-03T10:37:52;1.40;;;0.60;;
14837;SDS011;7510;59.296;18.106;2022-07-03T10:40:24;1.23;;;0.80;;
14837;SDS011;7510;59.296;18.106;2022-07-03T10:43:13;1.05;;;0.70;;
14837;SDS011;7510;59.296;18.106;2022-07-03T10:46:17;0.90;;;0.68;;
14837;SDS011;7510;59.296;18.106;2022-07-03T10:51:17;1.85;;;0.77;;
14837;SDS011;7510;59.296;18.106;2022-07-03T10:53:42;1.30;;;0.75;;
14837;SDS011;7510;59.296;18.106;2022-07-03T10:56:07;2.70;;;0.90;;
14837;SDS011;7510;59.296;18.106;2022-07-03T11:01:24;1.75;;;0.90;;
14837;SDS011;7510;59.296;18.106;2022-07-03T11:03:51;1.70;;;0.77;;
14837;SDS011;7510;59.296;18.106;2022-07-03T11:06:16;3.92;;;0.90;;
14837;SDS011;7510;59.296;18.106;2022-07-03T11:09:00;1.33;;;0.70;;
14837;SDS011;7510;59.296;18.106;2022-07-03T11:11:42;2.22;;;0.73;;
14837;SDS011;7510;59.296;18.106;2022-07-03T11:14:28;2.25;;;0.90;;
14837;SDS011;7510;59.296;18.106;2022-07-03T11:19:37;2.40;;;1.00;;
14837;SDS011;7510;59.296;18.106;2022-07-03T11:22:04;0.88;;;0.80;;
14837;SDS011;7510;59.296;18.106;2022-07-03T11:24:37;2.58;;;0.85;;
14837;SDS011;7510;59.296;18.106;2022-07-03T11:27:13;1.90;;;0.63;;
14837;SDS011;7510;59.296;18.106;2022-07-03T11:29:39;1.25;;;0.60;;
14837;SDS011;7510;59.296;18.106;2022-07-03T11:34:49;1.70;;;1.00;;
14837;SDS011;7510;59.296;18.106;2022-07-03T11:37:20;0.88;;;0.80;;
14837;SDS011;7510;59.296;18.106;2022-07-03T11:39:46;1.98;;;0.60;;
14837;SDS011;7510;59.296;18.106;2022-07-03T11:42:13;2.67;;;0.88;;
14837;SDS011;7510;59.296;18.106;2022-07-03T11:44:38;1.20;;;0.70;;
14837;SDS011;7510;59.296;18.106;2022-07-03T11:47:03;2.28;;;0.80;;
14837;SDS011;7510;59.296;18.106;2022-07-03T11:49:29;1.48;;;0.60;;
14837;SDS011;7510;59.296;18.106;2022-07-03T11:51:58;1.42;;;0.60;;
14837;SDS011;7510;59.296;18.106;2022-07-03T11:54:24;0.95;;;0.70;;
14837;SDS011;7510;59.296;18.106;2022-07-03T11:56:50;0.75;;;0.73;;
14837;SDS011;7510;59.296;18.106;2022-07-03T11:59:15;1.00;;;0.90;;
14837;SDS011;7510;59.296;18.106;2022-07-03T12:01:40;1.85;;;1.25;;
14837;SDS011;7510;59.296;18.106;2022-07-03T12:04:10;2.10;;;1.45;;
14837;SDS011;7510;59.296;18.106;2022-07-03T12:06:38;1.45;;;1.02;;
14837;SDS011;7510;59.296;18.106;2022-07-03T12:11:38;2.05;;;0.60;;
14837;SDS011;7510;59.296;18.106;2022-07-03T12:14:03;0.95;;;0.75;;
14837;SDS011;7510;59.296;18.106;2022-07-03T12:16:32;2.07;;;0.87;;
14837;SDS011;7510;59.296;18.106;2022-07-03T12:19:03;0.60;;;0.50;;
14837;SDS011;7510;59.296;18.106;2022-07-03T12:21:34;0.88;;;0.80;;
14837;SDS011;7510;59.296;18.106;2022-07-03T12:24:00;1.20;;;0.90;;
14837;SDS011;7510;59.296;18.106;2022-07-03T12:26:29;1.05;;;0.70;;
14837;SDS011;7510;59.296;18.106;2022-07-03T12:28:55;1.45;;;0.70;;
14837;SDS011;7510;59.296;18.106;2022-07-03T12:31:21;1.08;;;0.70;;
14837;SDS011;7510;59.296;18.106;2022-07-03T12:33:46;0.73;;;0.70;;
14837;SDS011;7510;59.296;18.106;2022-07-03T12:36:12;2.92;;;1.40;;
14837;SDS011;7510;59.296;18.106;2022-07-03T12:38:38;2.47;;;1.10;;
14837;SDS011;7510;59.296;18.106;2022-07-03T12:41:08;1.65;;;0.77;;
14837;SDS011;7510;59.296;18.106;2022-07-03T12:43:37;3.17;;;0.75;;
14837;SDS011;7510;59.296;18.106;2022-07-03T12:46:14;1.23;;;0.63;;
14837;SDS011;7510;59.296;18.106;2022-07-03T12:51:10;3.63;;;0.98;;
14837;SDS011;7510;59.296;18.106;2022-07-03T12:53:36;2.10;;;0.68;;
14837;SDS011;7510;59.296;18.106;2022-07-03T12:56:02;1.17;;;0.63;;
14837;SDS011;7510;59.296;18.106;2022-07-03T12:58:28;2.17;;;0.80;;
14837;SDS011;7510;59.296;18.106;2022-07-03T13:03:50;2.30;;;1.10;;
14837;SDS011;7510;59.296;18.106;2022-07-03T13:06:15;3.78;;;1.05;;
14837;SDS011;7510;59.296;18.106;2022-07-03T13:08:51;1.50;;;0.90;;
14837;SDS011;7510;59.296;18.106;2022-07-03T13:11:25;2.47;;;1.10;;
14837;SDS011;7510;59.296;18.106;2022-07-03T13:13:50;0.70;;;0.68;;
14837;SDS011;7510;59.296;18.106;2022-07-03T13:16:23;3.22;;;0.90;;
14837;SDS011;7510;59.296;18.106;2022-07-03T13:18:58;1.23;;;0.90;;
14837;SDS011;7510;59.296;18.106;2022-07-03T13:21:23;1.27;;;0.80;;
14837;SDS011;7510;59.296;18.106;2022-07-03T13:23:49;2.20;;;0.75;;
14837;SDS011;7510;59.296;18.106;2022-07-03T13:26:14;1.30;;;0.50;;
14837;SDS011;7510;59.296;18.106;2022-07-03T13:28:39;2.25;;;0.85;;
14837;SDS011;7510;59.296;18.106;2022-07-03T13:31:04;2.63;;;0.80;;
14837;SDS011;7510;59.296;18.106;2022-07-03T13:33:29;2.28;;;0.70;;
14837;SDS011;7510;59.296;18.106;2022-07-03T13:35:54;1.20;;;1.00;;
14837;SDS011;7510;59.296;18.106;2022-07-03T13:38:20;1.17;;;0.82;;
14837;SDS011;7510;59.296;18.106;2022-07-03T13:40:45;2.40;;;1.00;;
14837;SDS011;7510;59.296;18.106;2022-07-03T13:43:10;1.00;;;0.70;;
14837;SDS011;7510;59.296;18.106;2022-07-03T13:45:35;2.13;;;0.60;;
14837;SDS011;7510;59.296;18.106;2022-07-03T13:48:01;3.28;;;0.90;;
14837;SDS011;7510;59.296;18.106;2022-07-03T13:50:26;2.00;;;1.00;;
14837;SDS011;7510;59.296;18.106;2022-07-03T13:52:52;0.47;;;0.40;;
14837;SDS011;7510;59.296;18.106;2022-07-03T13:55:18;1.13;;;0.90;;
14837;SDS011;7510;59.296;18.106;2022-07-03T13:57:43;2.03;;;0.93;;
14837;SDS011;7510;59.296;18.106;2022-07-03T14:00:08;1.35;;;0.82;;
14837;SDS011;7510;59.296;18.106;2022-07-03T14:02:35;2.00;;;0.82;;
14837;SDS011;7510;59.296;18.106;2022-07-03T14:05:00;1.95;;;0.77;;
14837;SDS011;7510;59.296;18.106;2022-07-03T14:07:25;2.50;;;0.80;;
14837;SDS011;7510;59.296;18.106;2022-07-03T14:09:50;1.42;;;0.88;;
14837;SDS011;7510;59.296;18.106;2022-07-03T14:12:15;4.18;;;1.50;;
14837;SDS011;7510;59.296;18.106;2022-07-03T14:14:41;2.53;;;1.00;;
14837;SDS011;7510;59.296;18.106;2022-07-03T14:17:06;3.42;;;1.00;;
14837;SDS011;7510;59.296;18.106;2022-07-03T14:19:31;1.20;;;0.73;;
14837;SDS011;7510;59.296;18.106;2022-07-03T14:21:56;2.03;;;0.90;;
14837;SDS011;7510;59.296;18.106;2022-07-03T14:24:21;2.15;;;1.25;;
14837;SDS011;7510;59.296;18.106;2022-07-03T14:26:47;4.68;;;1.30;;
14837;SDS011;7510;59.296;18.106;2022-07-03T14:29:30;3.20;;;0.80;;
14837;SDS011;7510;59.296;18.106;2022-07-03T14:32:14;1.30;;;0.93;;
14837;SDS011;7510;59.296;18.106;2022-07-03T14:34:55;1.20;;;0.93;;
14837;SDS011;7510;59.296;18.106;2022-07-03T14:37:21;2.10;;;1.05;;
14837;SDS011;7510;59.296;18.106;2022-07-03T14:39:46;3.08;;;1.13;;
14837;SDS011;7510;59.296;18.106;2022-07-03T14:42:11;2.15;;;0.82;;
14837;SDS011;7510;59.296;18.106;2022-07-03T14:44:37;2.60;;;0.98;;
14837;SDS011;7510;59.296;18.106;2022-07-03T14:47:02;2.42;;;0.88;;
14837;SDS011;7510;59.296;18.106;2022-07-03T14:49:28;0.80;;;0.80;;
14837;SDS011;7510;59.296;18.106;2022-07-03T14:51:53;2.47;;;0.70;;
14837;SDS011;7510;59.296;18.106;2022-07-03T14:54:18;2.13;;;0.82;;
14837;SDS011;7510;59.296;18.106;2022-07-03T14:56:47;2.92;;;0.88;;
14837;SDS011;7510;59.296;18.106;2022-07-03T14:59:16;3.10;;;0.80;;
14837;SDS011;7510;59.296;18.106;2022-07-03T15:01:42;0.80;;;0.70;;
14837;SDS011;7510;59.296;18.106;2022-07-03T15:04:09;1.85;;;1.00;;
14837;SDS011;7510;59.296;18.106;2022-07-03T15:06:39;4.03;;;1.02;;
14837;SDS011;7510;59.296;18.106;2022-07-03T15:09:04;1.35;;;0.80;;
14837;SDS011;7510;59.296;18.106;2022-07-03T15:11:41;1.00;;;0.80;;
14837;SDS011;7510;59.296;18.106;2022-07-03T15:14:28;1.73;;;0.88;;
14837;SDS011;7510;59.296;18.106;2022-07-03T15:16:53;2.25;;;0.88;;
14837;SDS011;7510;59.296;18.106;2022-07-03T15:19:19;2.83;;;0.90;;
14837;SDS011;7510;59.296;18.106;2022-07-03T15:21:48;1.65;;;0.90;;
14837;SDS011;7510;59.296;18.106;2022-07-03T15:24:13;1.05;;;0.85;;
14837;SDS011;7510;59.296;18.106;2022-07-03T15:26:40;2.58;;;0.98;;
14837;SDS011;7510;59.296;18.106;2022-07-03T15:29:05;3.72;;;1.88;;
14837;SDS011;7510;59.296;18.106;2022-07-03T15:31:34;1.27;;;1.00;;
14837;SDS011;7510;59.296;18.106;2022-07-03T15:34:03;1.75;;;1.10;;
14837;SDS011;7510;59.296;18.106;2022-07-03T15:36:29;1.27;;;0.70;;
14837;SDS011;7510;59.296;18.106;2022-07-03T15:39:03;1.73;;;1.25;;
14837;SDS011;7510;59.296;18.106;2022-07-03T15:41:35;2.92;;;0.98;;